createdAt,value
2019-05-02T00:00:16.490Z,35.67
2019-05-02T00:02:48.502Z,37.00
2019-05-02T00:05:21.177Z,35.33
2019-05-02T00:07:53.811Z,34.87
2019-05-02T00:10:26.209Z,38.37
2019-05-02T00:12:58.017Z,36.20
2019-05-02T00:15:33.151Z,35.30
2019-05-02T00:18:02.735Z,34.53
2019-05-02T00:20:34.107Z,38.40
2019-05-02T00:23:05.456Z,37.30
2019-05-02T00:25:36.746Z,36.63
2019-05-02T00:28:12.320Z,37.57
2019-05-02T00:30:41.100Z,36.67
2019-05-02T00:33:12.343Z,39.73
2019-05-02T00:35:46.261Z,41.10
2019-05-02T00:38:16.445Z,39.30
2019-05-02T00:40:47.610Z,39.03
2019-05-02T00:43:18.967Z,42.47
2019-05-02T00:45:50.234Z,39.90
2019-05-02T00:48:27.445Z,40.87
2019-05-02T00:50:58.696Z,42.90
2019-05-02T00:53:30.011Z,42.13
2019-05-02T00:56:05.050Z,39.17
2019-05-02T00:58:34.201Z,43.03
2019-05-02T01:01:29.590Z,39.70
2019-05-02T01:04:03.833Z,43.90
2019-05-02T01:06:35.087Z,42.03
2019-05-02T01:09:11.014Z,44.50
2019-05-02T01:11:42.354Z,45.00
2019-05-02T01:14:13.597Z,42.47
2019-05-02T01:16:44.837Z,42.67
2019-05-02T01:19:17.251Z,43.90
2019-05-02T01:21:48.686Z,46.30
2019-05-02T01:24:19.919Z,43.50
2019-05-02T01:27:09.988Z,48.23
2019-05-02T01:29:46.093Z,43.47
2019-05-02T01:32:25.230Z,43.67
2019-05-02T01:35:11.637Z,45.20
2019-05-02T01:38:16.964Z,45.10
2019-05-02T01:40:53.370Z,43.00
2019-05-02T01:43:31.346Z,44.10
2019-05-02T01:46:03.510Z,48.33
2019-05-02T01:48:34.778Z,45.17
2019-05-02T01:51:10.419Z,47.10
2019-05-02T01:53:39.115Z,43.00
2019-05-02T01:56:10.426Z,46.60
2019-05-02T01:58:41.669Z,43.90
2019-05-02T02:01:16.155Z,46.27
2019-05-02T02:03:46.950Z,47.87
2019-05-02T02:06:18.334Z,44.93
2019-05-02T02:08:49.612Z,48.93
2019-05-02T02:11:20.904Z,50.50
2019-05-02T02:13:52.159Z,48.83
2019-05-02T02:16:23.439Z,51.70
2019-05-02T02:19:05.251Z,51.30
2019-05-02T02:22:02.681Z,50.53
2019-05-02T02:24:43.733Z,52.17
2019-05-02T02:27:15.128Z,51.67
2019-05-02T02:29:46.295Z,53.57
2019-05-02T02:32:20.171Z,52.30
2019-05-02T02:34:50.501Z,54.23
2019-05-02T02:37:21.710Z,48.70
2019-05-02T02:39:54.038Z,49.53
2019-05-02T02:42:31.731Z,51.20
2019-05-02T02:45:12.912Z,49.07
2019-05-02T02:47:41.082Z,49.27
2019-05-02T02:50:12.632Z,54.70
2019-05-02T02:52:44.688Z,51.77
2019-05-02T02:55:21.911Z,51.27
2019-05-02T02:57:49.737Z,50.80
2019-05-02T03:00:21.192Z,50.90
2019-05-02T03:02:52.474Z,52.07
2019-05-02T03:05:25.849Z,50.20
2019-05-02T03:07:59.464Z,51.90
2019-05-02T03:10:29.695Z,50.87
2019-05-02T03:13:21.651Z,51.30
2019-05-02T03:16:00.430Z,52.33
2019-05-02T03:18:39.782Z,44.20
2019-05-02T03:21:05.244Z,49.97
2019-05-02T03:23:36.927Z,51.70
2019-05-02T03:26:14.826Z,51.47
2019-05-02T03:28:41.125Z,52.40
2019-05-02T03:31:24.059Z,48.50
2019-05-02T03:33:54.425Z,50.70
2019-05-02T03:36:28.852Z,49.73
2019-05-02T03:38:51.668Z,51.43
2019-05-02T03:41:23.609Z,52.47
2019-05-02T03:44:10.006Z,51.43
2019-05-02T03:46:28.014Z,53.80
2019-05-02T03:49:07.279Z,51.07
2019-05-02T03:51:32.149Z,53.00
2019-05-02T03:54:07.276Z,51.50
2019-05-02T03:56:36.495Z,52.40
2019-05-02T03:59:07.722Z,53.00
2019-05-02T04:01:41.298Z,48.37
2019-05-02T04:04:14.233Z,49.77
2019-05-02T04:06:47.177Z,50.50
2019-05-02T04:09:39.705Z,52.47
2019-05-02T04:12:18.368Z,50.80
2019-05-02T04:14:44.670Z,50.27
2019-05-02T04:17:16.255Z,52.00
2019-05-02T04:19:48.298Z,47.90
2019-05-02T04:22:19.763Z,50.07
2019-05-02T04:24:54.346Z,50.83
2019-05-02T04:27:27.821Z,53.10
2019-05-02T04:29:57.147Z,55.90
2019-05-02T04:32:28.422Z,51.00
2019-05-02T04:34:59.668Z,49.53
2019-05-02T04:37:34.293Z,56.27
2019-05-02T04:40:08.042Z,50.90
2019-05-02T04:42:39.365Z,47.80
2019-05-02T04:45:24.080Z,48.87
2019-05-02T04:47:54.583Z,51.77
2019-05-02T04:50:18.786Z,53.37
2019-05-02T04:52:53.757Z,50.27
2019-05-02T04:55:29.089Z,53.47
2019-05-02T04:57:54.802Z,53.30
2019-05-02T05:00:30.142Z,53.30
2019-05-02T05:03:01.435Z,55.07
2019-05-02T05:05:32.679Z,55.73
2019-05-02T05:08:03.913Z,54.80
2019-05-02T05:10:41.391Z,54.83
2019-05-02T05:13:12.044Z,57.00
2019-05-02T05:15:48.443Z,58.97
2019-05-02T05:18:14.601Z,54.13
2019-05-02T05:20:52.787Z,50.90
2019-05-02T05:23:38.113Z,52.87
2019-05-02T05:26:09.570Z,49.60
2019-05-02T05:28:44.384Z,46.10
2019-05-02T05:31:16.422Z,47.53
2019-05-02T05:33:47.857Z,45.33
2019-05-02T05:36:20.022Z,46.90
2019-05-02T05:38:52.121Z,42.57
2019-05-02T05:41:23.384Z,41.63
2019-05-02T05:43:54.696Z,40.13
2019-05-02T05:46:28.006Z,40.77
2019-05-02T05:48:58.861Z,37.57
2019-05-02T05:51:30.147Z,41.57
2019-05-02T05:54:03.071Z,36.60
2019-05-02T05:56:39.661Z,34.30
2019-05-02T05:59:07.755Z,33.00
2019-05-02T06:01:39.244Z,33.77
2019-05-02T06:04:13.814Z,30.73
2019-05-02T06:06:43.464Z,32.03
2019-05-02T06:09:14.680Z,31.27
2019-05-02T06:11:46.016Z,30.50
2019-05-02T06:14:19.952Z,29.77
2019-05-02T06:16:51.687Z,30.20
2019-05-02T06:19:23.109Z,31.40
2019-05-02T06:21:54.401Z,31.70
2019-05-02T06:24:25.654Z,31.93
2019-05-02T06:26:56.936Z,30.40
2019-05-02T06:29:28.246Z,29.70
2019-05-02T06:32:05.496Z,29.97
2019-05-02T06:34:38.289Z,33.00
2019-05-02T06:37:13.553Z,35.00
2019-05-02T06:39:42.639Z,31.97
2019-05-02T06:42:13.889Z,33.10
2019-05-02T06:44:45.102Z,34.23
2019-05-02T06:47:16.279Z,34.30
2019-05-02T06:49:47.549Z,33.00
2019-05-02T06:52:18.868Z,29.73
2019-05-02T06:54:54.118Z,31.70
2019-05-02T06:57:24.025Z,28.37
2019-05-02T06:59:56.512Z,26.53
2019-05-02T07:02:28.269Z,28.83
2019-05-02T07:05:00.819Z,28.33
2019-05-02T07:07:36.646Z,29.60
2019-05-02T07:10:07.336Z,29.83
2019-05-02T07:12:38.575Z,29.57
2019-05-02T07:15:33.414Z,30.50
2019-05-02T07:18:05.456Z,28.73
2019-05-02T07:20:40.714Z,30.43
2019-05-02T07:23:10.470Z,27.80
2019-05-02T07:25:43.864Z,31.57
2019-05-02T07:28:29.600Z,33.70
2019-05-02T07:31:06.505Z,37.70
2019-05-02T07:33:37.519Z,39.13
2019-05-02T07:36:08.436Z,42.40
2019-05-02T07:38:39.650Z,41.20
2019-05-02T07:41:10.909Z,46.00
2019-05-02T07:43:42.199Z,42.07
2019-05-02T07:46:16.219Z,42.80
2019-05-02T07:48:48.959Z,42.27
2019-05-02T07:51:21.418Z,43.77
2019-05-02T07:53:55.248Z,40.70
2019-05-02T07:56:25.234Z,41.47
2019-05-02T07:58:56.518Z,39.53
2019-05-02T08:01:27.763Z,37.93
2019-05-02T08:04:04.200Z,37.97
2019-05-02T08:06:35.242Z,34.50
2019-05-02T08:09:07.367Z,36.20
2019-05-02T08:11:39.455Z,36.80
2019-05-02T08:14:10.751Z,35.53
2019-05-02T08:16:41.941Z,33.23
2019-05-02T08:19:13.234Z,30.27
2019-05-02T08:21:44.419Z,32.20
2019-05-02T08:24:15.671Z,30.03
2019-05-02T08:27:14.516Z,28.53
2019-05-02T08:29:45.766Z,29.30
2019-05-02T08:32:16.993Z,30.70
2019-05-02T08:34:51.901Z,29.03
2019-05-02T08:37:21.149Z,30.00
2019-05-02T08:39:52.397Z,29.53
2019-05-02T08:42:27.681Z,31.20
2019-05-02T08:45:00.912Z,30.40
2019-05-02T08:47:30.572Z,29.57
2019-05-02T08:50:01.852Z,27.20
2019-05-02T08:52:36.831Z,28.47
2019-05-02T08:55:09.811Z,28.40
2019-05-02T08:57:39.410Z,29.37
2019-05-02T09:00:13.404Z,29.60
2019-05-02T09:02:44.685Z,31.30
2019-05-02T09:05:16.454Z,32.10
2019-05-02T09:07:47.709Z,31.20
2019-05-02T09:10:19.199Z,30.63
2019-05-02T09:12:52.083Z,30.23
2019-05-02T09:15:23.575Z,31.70
2019-05-02T09:17:56.409Z,31.67
2019-05-02T09:20:27.860Z,30.47
2019-05-02T09:22:59.127Z,30.47
2019-05-02T09:25:32.315Z,34.83
2019-05-02T09:28:03.522Z,33.87
2019-05-02T09:30:34.781Z,31.77
2019-05-02T09:33:06.814Z,33.63
2019-05-02T09:35:38.259Z,31.90
2019-05-02T09:38:09.544Z,30.70
2019-05-02T09:40:42.600Z,33.50
2019-05-02T09:43:13.817Z,30.27
2019-05-02T09:45:45.068Z,31.03
2019-05-02T09:48:17.175Z,33.27
2019-05-02T09:50:49.283Z,32.80
2019-05-02T09:55:55.140Z,33.60
2019-05-02T09:58:24.072Z,33.37
2019-05-02T10:01:01.989Z,31.80
2019-05-02T10:03:33.496Z,34.20
2019-05-02T10:06:08.366Z,32.80
2019-05-02T10:08:38.341Z,34.17
2019-05-02T10:11:11.775Z,35.10
2019-05-02T10:13:44.494Z,32.80
2019-05-02T10:16:18.054Z,33.30
2019-05-02T10:18:48.916Z,35.20
2019-05-02T10:21:22.650Z,32.70
2019-05-02T10:23:59.006Z,34.07
2019-05-02T10:26:27.823Z,33.03
2019-05-02T10:28:58.942Z,32.67
2019-05-02T10:31:33.420Z,33.20
2019-05-02T10:34:03.356Z,34.37
2019-05-02T10:36:34.722Z,30.67
2019-05-02T10:39:08.467Z,28.57
2019-05-02T10:41:41.058Z,32.23
2019-05-02T10:44:12.937Z,29.73
2019-05-02T10:46:56.013Z,32.87
2019-05-02T10:49:32.217Z,32.33
2019-05-02T10:52:03.501Z,32.70
2019-05-02T10:54:37.482Z,32.40
2019-05-02T10:57:07.781Z,30.50
2019-05-02T10:59:41.957Z,33.30
2019-05-02T11:02:26.663Z,32.90
2019-05-02T11:05:02.703Z,33.67
2019-05-02T11:07:34.079Z,28.80
2019-05-02T11:10:07.234Z,31.40
2019-05-02T11:12:47.334Z,31.97
2019-05-02T11:15:48.694Z,30.13
2019-05-02T11:18:38.792Z,31.63
2019-05-02T11:20:58.997Z,30.70
2019-05-02T11:23:32.853Z,30.40
2019-05-02T11:26:07.189Z,31.00
2019-05-02T11:28:52.004Z,33.17
2019-05-02T11:31:23.230Z,29.87
2019-05-02T11:33:54.524Z,29.80
2019-05-02T11:36:27.470Z,28.77
2019-05-02T11:39:09.509Z,30.50
2019-05-02T11:41:31.903Z,30.50
2019-05-02T11:44:03.360Z,31.30
2019-05-02T11:46:37.617Z,28.33
2019-05-02T11:49:07.753Z,29.63
2019-05-02T11:51:38.990Z,30.83
2019-05-02T11:54:10.390Z,29.23
2019-05-02T11:56:49.103Z,34.13
2019-05-02T11:59:15.079Z,29.40
2019-05-02T12:01:59.738Z,29.23
2019-05-02T12:04:26.473Z,25.77
2019-05-02T12:07:01.340Z,28.20
2019-05-02T12:09:31.945Z,27.90
2019-05-02T12:12:03.319Z,30.80
2019-05-02T12:14:36.396Z,30.83
2019-05-02T12:17:07.498Z,30.17
2019-05-02T12:19:38.744Z,26.90
2019-05-02T12:22:12.825Z,27.87
2019-05-02T12:24:45.359Z,25.90
2019-05-02T12:27:16.083Z,26.40
2019-05-02T12:29:50.221Z,28.53
2019-05-02T12:32:22.332Z,27.00
2019-05-02T12:34:53.300Z,27.63
2019-05-02T12:37:24.637Z,28.57
2019-05-02T12:39:55.845Z,28.03
2019-05-02T12:42:27.461Z,26.97
2019-05-02T12:44:59.255Z,29.07
2019-05-02T12:47:31.927Z,29.47
2019-05-02T12:50:03.336Z,27.43
2019-05-02T12:52:34.512Z,29.40
2019-05-02T12:55:06.215Z,27.87
2019-05-02T12:57:37.534Z,28.20
2019-05-02T13:00:10.271Z,29.37
2019-05-02T13:03:02.016Z,27.57
2019-05-02T13:05:33.406Z,27.93
2019-05-02T13:08:04.801Z,28.10
2019-05-02T13:11:06.392Z,27.73
2019-05-02T13:13:34.637Z,27.93
2019-05-02T13:16:06.269Z,25.67
2019-05-02T13:18:37.571Z,26.27
2019-05-02T13:21:15.175Z,27.50
2019-05-02T13:23:51.723Z,27.43
2019-05-02T13:26:27.151Z,27.63
2019-05-02T13:28:56.381Z,26.73
2019-05-02T13:31:43.003Z,27.23
2019-05-02T13:34:24.484Z,27.47
2019-05-02T13:36:57.934Z,27.47
2019-05-02T13:39:41.847Z,28.33
2019-05-02T13:42:13.577Z,28.10
2019-05-02T13:44:52.703Z,29.63
2019-05-02T13:47:24.847Z,27.40
2019-05-02T13:49:59.212Z,28.33
2019-05-02T13:52:29.857Z,28.00
2019-05-02T13:55:01.810Z,29.67
2019-05-02T13:57:35.009Z,25.97
2019-05-02T14:00:07.516Z,28.00
2019-05-02T14:02:42.641Z,29.40
2019-05-02T14:05:15.967Z,27.33
2019-05-02T14:07:53.987Z,29.80
2019-05-02T14:10:39.373Z,28.80
2019-05-02T14:13:06.751Z,31.80
2019-05-02T14:15:42.070Z,33.80
2019-05-02T14:18:13.526Z,40.13
2019-05-02T14:20:44.789Z,44.23
2019-05-02T14:23:16.062Z,49.50
2019-05-02T14:25:47.332Z,46.70
2019-05-02T14:28:18.597Z,51.70
2019-05-02T14:30:49.825Z,50.17
2019-05-02T14:33:23.637Z,50.33
2019-05-02T14:35:56.498Z,51.13
2019-05-02T14:38:27.778Z,49.87
2019-05-02T14:41:30.036Z,53.63
2019-05-02T14:44:00.027Z,50.63
2019-05-02T14:46:37.329Z,51.77
2019-05-02T14:49:05.867Z,51.67
2019-05-02T14:51:37.120Z,51.47
2019-05-02T14:54:09.577Z,49.97
2019-05-02T14:56:52.260Z,52.87
2019-05-02T14:59:23.828Z,51.20
2019-05-02T15:02:03.906Z,46.47
2019-05-02T15:04:32.129Z,48.40
2019-05-02T15:07:03.607Z,47.93
2019-05-02T15:09:36.368Z,48.70
2019-05-02T15:12:15.909Z,49.43
2019-05-02T15:14:42.767Z,51.53
2019-05-02T15:17:13.909Z,49.60
2019-05-02T15:19:45.218Z,48.90
2019-05-02T15:22:16.451Z,50.20
2019-05-02T15:24:47.739Z,48.80
2019-05-02T15:27:18.953Z,49.10
2019-05-02T15:29:55.359Z,48.80
2019-05-02T15:32:47.974Z,50.97
2019-05-02T15:35:44.171Z,50.60
2019-05-02T15:38:24.300Z,52.33
2019-05-02T15:40:51.438Z,52.87
2019-05-02T15:43:22.143Z,58.03
2019-05-02T15:45:53.474Z,54.37
2019-05-02T15:48:27.407Z,55.87
2019-05-02T15:51:00.138Z,54.30
2019-05-02T15:53:49.697Z,46.33
2019-05-02T15:56:20.296Z,26.20
2019-05-02T15:58:52.162Z,31.00
2019-05-02T16:01:41.243Z,38.57
2019-05-02T16:04:17.299Z,40.73
2019-05-02T16:06:47.613Z,41.00
2019-05-02T16:09:18.873Z,48.67
2019-05-02T16:11:53.208Z,50.87
2019-05-02T16:14:27.058Z,53.37
2019-05-02T16:16:55.998Z,55.67
2019-05-02T16:19:29.325Z,54.57
2019-05-02T16:22:22.468Z,49.47
2019-05-02T16:24:56.358Z,45.40
2019-05-02T16:27:46.767Z,46.00
2019-05-02T16:30:24.082Z,46.30
2019-05-02T16:33:02.738Z,47.90
2019-05-02T16:35:35.337Z,49.40
2019-05-02T16:38:07.102Z,47.97
2019-05-02T16:40:41.774Z,50.53
2019-05-02T16:43:12.894Z,46.90
2019-05-02T16:45:44.323Z,48.03
2019-05-02T16:48:19.812Z,45.97
2019-05-02T16:50:51.082Z,50.53
2019-05-02T16:53:26.040Z,51.43
2019-05-02T16:55:58.437Z,47.10
2019-05-02T16:58:31.928Z,51.00
2019-05-02T17:01:07.872Z,48.37
2019-05-02T17:03:42.055Z,52.50
2019-05-02T17:06:22.368Z,46.60
2019-05-02T17:09:11.930Z,47.20
2019-05-02T17:11:44.416Z,44.97
2019-05-02T17:14:22.091Z,44.10
2019-05-02T17:17:01.403Z,42.30
2019-05-02T17:19:34.757Z,42.90
2019-05-02T17:22:08.622Z,41.27
2019-05-02T17:24:44.316Z,41.63
2019-05-02T17:27:20.593Z,39.37
2019-05-02T17:29:59.415Z,39.30
2019-05-02T17:32:28.852Z,40.73
2019-05-02T17:35:09.767Z,35.70
2019-05-02T17:37:40.621Z,36.80
2019-05-02T17:40:12.342Z,33.87
2019-05-02T17:42:47.744Z,36.27
2019-05-02T17:45:23.890Z,35.60
2019-05-02T17:48:02.187Z,32.70
2019-05-02T17:50:54.768Z,35.07
2019-05-02T17:53:25.049Z,34.63
2019-05-02T17:55:57.315Z,36.70
2019-05-02T17:58:29.040Z,38.07
2019-05-02T18:01:02.616Z,40.00
2019-05-02T18:03:36.314Z,36.67
2019-05-02T18:06:13.237Z,38.90
2019-05-02T18:08:41.706Z,37.20
2019-05-02T18:11:18.629Z,38.43
2019-05-02T18:13:51.786Z,37.43
2019-05-02T18:16:26.952Z,36.00
2019-05-02T18:19:03.946Z,37.13
2019-05-02T18:21:41.883Z,39.60
2019-05-02T18:24:13.519Z,40.60
2019-05-02T18:26:47.872Z,38.30
2019-05-02T18:29:21.040Z,41.53
2019-05-02T18:31:52.676Z,40.73
2019-05-02T18:34:26.674Z,44.00
2019-05-02T18:37:06.381Z,42.20
2019-05-02T18:39:42.621Z,40.43
2019-05-02T18:42:11.960Z,44.70
2019-05-02T18:44:52.553Z,46.20
2019-05-02T18:47:20.315Z,45.53
2019-05-02T18:50:00.924Z,48.87
2019-05-02T18:52:38.433Z,46.23
2019-05-02T18:55:05.748Z,46.80
2019-05-02T18:57:36.349Z,44.57
2019-05-02T19:00:07.946Z,42.90
2019-05-02T19:02:39.849Z,48.33
2019-05-02T19:05:22.950Z,49.50
2019-05-02T19:08:28.339Z,47.40
2019-05-02T19:11:06.044Z,49.17
2019-05-02T19:13:30.734Z,47.57
2019-05-02T19:16:02.213Z,49.20
2019-05-02T19:18:33.371Z,50.67
2019-05-02T19:21:05.848Z,52.03
2019-05-02T19:23:51.699Z,50.57
2019-05-02T19:26:22.848Z,48.53
2019-05-02T19:29:12.796Z,53.27
2019-05-02T19:31:48.860Z,51.67
2019-05-02T19:34:22.896Z,50.73
2019-05-02T19:36:52.631Z,52.17
2019-05-02T19:39:24.339Z,48.73
2019-05-02T19:41:55.942Z,51.00
2019-05-02T19:44:29.621Z,53.07
2019-05-02T19:47:08.327Z,51.23
2019-05-02T19:49:38.598Z,53.10
2019-05-02T19:54:39.960Z,51.20
2019-05-02T19:57:21.683Z,48.67
2019-05-02T20:00:02.786Z,42.43
2019-05-02T20:02:37.385Z,40.50
2019-05-02T20:05:06.258Z,36.03
2019-05-02T20:07:37.535Z,30.90
2019-05-02T20:10:09.840Z,29.47
2019-05-02T20:12:48.368Z,28.80
2019-05-02T20:15:17.077Z,30.20
2019-05-02T20:17:55.304Z,24.83
2019-05-02T20:21:00.262Z,26.40
2019-05-02T20:23:35.744Z,21.47
2019-05-02T20:26:09.468Z,24.77
2019-05-02T20:28:42.157Z,24.27
2019-05-02T20:31:13.245Z,22.33
2019-05-02T20:33:44.495Z,21.23
2019-05-02T20:36:15.776Z,20.20
2019-05-02T20:38:47.214Z,20.73
2019-05-02T20:41:22.378Z,16.80
2019-05-02T20:44:12.774Z,15.33
2019-05-02T20:46:48.705Z,15.27
2019-05-02T20:49:20.324Z,16.13
2019-05-02T20:51:53.306Z,14.60
2019-05-02T20:54:24.567Z,12.63
2019-05-02T20:56:55.846Z,12.97
2019-05-02T20:59:27.170Z,13.80
2019-05-02T21:01:58.557Z,13.50
2019-05-02T21:04:31.723Z,11.10
2019-05-02T21:07:26.101Z,12.23
2019-05-02T21:10:12.514Z,13.70
2019-05-02T21:12:44.022Z,12.53
2019-05-02T21:15:18.162Z,11.10
2019-05-02T21:17:48.419Z,12.83
2019-05-02T21:20:21.772Z,12.53
2019-05-02T21:22:53.049Z,12.20
2019-05-02T21:25:24.608Z,12.40
2019-05-02T21:27:55.945Z,12.40
2019-05-02T21:30:29.647Z,11.63
2019-05-02T21:33:02.732Z,11.80
2019-05-02T21:35:33.939Z,10.80
2019-05-02T21:38:05.196Z,10.87
2019-05-02T21:40:36.518Z,10.53
2019-05-02T21:43:08.141Z,10.67
2019-05-02T21:45:39.491Z,11.87
2019-05-02T21:48:10.748Z,11.23
2019-05-02T21:50:53.289Z,11.70
2019-05-02T21:53:34.538Z,11.40
2019-05-02T21:56:12.323Z,11.20
2019-05-02T21:59:02.977Z,11.43
2019-05-02T22:01:38.236Z,11.80
2019-05-02T22:04:09.553Z,10.40
2019-05-02T22:06:42.750Z,9.50
2019-05-02T22:09:14.742Z,10.60
2019-05-02T22:11:47.618Z,10.20
2019-05-02T22:14:22.367Z,9.60
2019-05-02T22:16:53.666Z,9.60
2019-05-02T22:19:25.018Z,9.20
2019-05-02T22:21:56.311Z,9.10
2019-05-02T22:24:27.609Z,9.30
2019-05-02T22:26:59.603Z,8.80
2019-05-02T22:29:32.390Z,9.70
2019-05-02T22:32:03.894Z,9.60
2019-05-02T22:34:35.254Z,9.50
2019-05-02T22:37:08.150Z,9.70
2019-05-02T22:39:53.334Z,9.23
2019-05-02T22:42:24.729Z,9.17
2019-05-02T22:44:56.074Z,9.37
2019-05-02T22:47:27.485Z,8.70
2019-05-02T22:49:58.802Z,9.33
2019-05-02T22:52:32.162Z,8.23
2019-05-02T22:55:03.082Z,8.73
2019-05-02T22:57:34.484Z,8.80
2019-05-02T23:00:07.088Z,8.93
2019-05-02T23:02:38.418Z,9.10
2019-05-02T23:05:10.122Z,9.50
2019-05-02T23:07:41.895Z,7.90
2019-05-02T23:10:13.696Z,8.70
2019-05-02T23:12:45.039Z,8.73
2019-05-02T23:15:16.493Z,8.20
2019-05-02T23:17:47.693Z,7.77
2019-05-02T23:20:19.319Z,8.33
2019-05-02T23:22:52.303Z,8.83
2019-05-02T23:25:58.702Z,9.10
2019-05-02T23:28:31.865Z,8.87
2019-05-02T23:31:03.220Z,9.43
2019-05-02T23:33:52.075Z,8.60
2019-05-02T23:36:23.407Z,7.70
2019-05-02T23:38:54.690Z,8.87
2019-05-02T23:41:26.248Z,8.30
2019-05-02T23:43:57.463Z,8.60
2019-05-02T23:46:28.780Z,8.43
2019-05-02T23:49:01.883Z,8.90
2019-05-02T23:51:33.190Z,8.13
2019-05-02T23:54:04.503Z,7.80
2019-05-02T23:56:35.836Z,8.80
2019-05-02T23:59:07.178Z,8.40
